.
Local / Fort Wayne - NE Ind.

U N D E R   C O N S T R U C T I O N

Local Weather
Fort Wayne – NE Indiana

Northern Indiana (IWX) Radar

Latest IWX NEXRAD
Base Reflectivity



Latest IWX NEXRAD
Base Velocity

Indiana-Ohio Visible Satellite

For infrared and water vapor imagery, see Great Lakes - Midwest.

Current Conditions

Recent report from the Fort Wayne International Airport

Jan 18, 2020 - 08:54 PM EST / 2020.01.19 0154 UTC


The skies are overcast. The temperature is 23.0 F (-5.0 C) and the dew point is 18.0 F (-7.8 C), giving a relative humidity of 80%. The barometric pressure is 29.86 in. Hg (1011 hPa). The wind is from the W (260 degrees) at 35 MPH (30 KT) gusting to 47 MPH (41 KT) creating a wind chill temperature of 5 F (-15 C), and the visibility is 10 mile(s).

KFWA 190154Z 26030G41KT 10SM OVC015 M05/M08 A2986 RMK AO2 PK WND 26045/0118 SLP120 T10501078

Local Weather — Contents

Local Weather — Links

CoCoRaHS
IN-AL-39
A2 Web Hosting
Creative Commons License
GoDaddy
search engine by freefind advanced

loaded 2020-01-18 21:28:04 • last modified 2017-02-11 13:27:36
Privacy PolicyDisclaimer
• wx.awcolley.com is powered by PmWiki v.2002016 •
• all content (unless otherwise noted) © 2020 A W Colley